createdAt,value
2022-08-03T00:00:26.141Z,21.20
2022-08-03T00:02:53.015Z,21.20
2022-08-03T00:05:19.745Z,21.20
2022-08-03T00:07:46.385Z,21.20
2022-08-03T00:10:15.230Z,21.20
2022-08-03T00:12:41.864Z,21.20
2022-08-03T00:15:11.283Z,21.20
2022-08-03T00:17:52.431Z,21.20
2022-08-03T00:20:23.515Z,21.10
2022-08-03T00:22:50.226Z,21.20
2022-08-03T00:25:16.974Z,21.20
2022-08-03T00:27:43.629Z,21.20
2022-08-03T00:30:10.538Z,21.20
2022-08-03T00:32:37.217Z,21.30
2022-08-03T00:35:10.564Z,21.20
2022-08-03T00:37:40.771Z,21.20
2022-08-03T00:40:12.569Z,21.30
2022-08-03T00:42:50.516Z,21.20
2022-08-03T00:45:17.904Z,21.20
2022-08-03T00:47:44.901Z,21.20
2022-08-03T00:50:11.781Z,21.10
2022-08-03T00:52:38.814Z,21.00
2022-08-03T00:55:05.817Z,21.00
2022-08-03T00:57:32.865Z,20.90
2022-08-03T01:00:00.211Z,20.90
2022-08-03T01:02:27.703Z,21.00
2022-08-03T01:04:54.424Z,21.00
2022-08-03T01:07:33.279Z,21.10
2022-08-03T01:10:06.334Z,21.10
2022-08-03T01:12:37.546Z,21.10
2022-08-03T01:15:13.116Z,21.00
2022-08-03T01:17:49.473Z,21.00
2022-08-03T01:20:16.856Z,21.00
2022-08-03T01:23:00.846Z,21.00
2022-08-03T01:25:38.556Z,21.00
2022-08-03T01:28:17.287Z,21.00
2022-08-03T01:30:45.367Z,20.90
2022-08-03T01:33:26.018Z,20.90
2022-08-03T01:36:03.179Z,20.80
2022-08-03T01:38:34.146Z,20.70
2022-08-03T01:41:04.505Z,20.70
2022-08-03T01:44:03.077Z,20.70
2022-08-03T01:46:19.891Z,20.60
2022-08-03T01:48:47.840Z,20.60
2022-08-03T01:51:15.894Z,20.50
2022-08-03T01:53:45.305Z,20.50
2022-08-03T01:56:12.526Z,20.50
2022-08-03T01:58:40.588Z,20.60
2022-08-03T02:01:09.065Z,20.60
2022-08-03T02:03:38.266Z,20.60
2022-08-03T02:07:01.141Z,20.50
2022-08-03T02:09:13.426Z,20.50
2022-08-03T02:11:40.608Z,20.50
2022-08-03T02:14:09.532Z,20.40
2022-08-03T02:16:36.292Z,20.40
2022-08-03T02:19:04.489Z,20.50
2022-08-03T02:21:56.927Z,20.40
2022-08-03T02:24:19.118Z,20.40
2022-08-03T02:26:46.478Z,20.30
2022-08-03T02:29:18.858Z,20.30
2022-08-03T02:31:46.353Z,20.30
2022-08-03T02:34:14.323Z,20.30
2022-08-03T02:36:41.850Z,20.30
2022-08-03T02:39:11.423Z,20.20
2022-08-03T02:41:42.072Z,20.20
2022-08-03T02:44:09.518Z,20.20
2022-08-03T02:46:38.472Z,20.20
2022-08-03T02:49:40.830Z,20.20
2022-08-03T02:51:54.324Z,20.20
2022-08-03T02:54:23.499Z,20.20
2022-08-03T02:56:50.257Z,20.20
2022-08-03T02:59:18.143Z,20.20
2022-08-03T03:01:45.366Z,20.20
2022-08-03T03:04:12.076Z,20.20
2022-08-03T03:06:40.441Z,20.20
2022-08-03T03:09:07.735Z,20.20
2022-08-03T03:11:35.899Z,20.20
2022-08-03T03:14:02.643Z,20.10
2022-08-03T03:16:30.231Z,20.20
2022-08-03T03:18:57.246Z,20.10
2022-08-03T03:21:24.067Z,20.10
2022-08-03T03:23:50.803Z,20.10
2022-08-03T03:26:17.969Z,20.00
2022-08-03T03:28:45.055Z,20.00
2022-08-03T03:31:11.767Z,19.90
2022-08-03T03:33:38.855Z,19.90
2022-08-03T03:36:06.407Z,19.90
2022-08-03T03:38:33.763Z,19.90
2022-08-03T03:41:00.646Z,19.90
2022-08-03T03:43:27.391Z,19.90
2022-08-03T03:45:54.920Z,19.90
2022-08-03T03:48:21.579Z,20.00
2022-08-03T03:50:49.667Z,19.90
2022-08-03T03:53:16.431Z,19.90
2022-08-03T03:55:59.588Z,19.90
2022-08-03T03:58:29.783Z,19.90
2022-08-03T04:00:56.912Z,19.80
2022-08-03T04:03:23.712Z,19.80
2022-08-03T04:06:09.210Z,19.80
2022-08-03T04:08:54.713Z,19.70
2022-08-03T04:11:29.368Z,19.70
2022-08-03T04:14:01.959Z,19.70
2022-08-03T04:16:31.173Z,19.70
2022-08-03T04:19:00.537Z,19.70
2022-08-03T04:21:28.624Z,19.70
2022-08-03T04:23:56.386Z,19.70
2022-08-03T04:26:24.447Z,19.70
2022-08-03T04:28:51.855Z,19.70
2022-08-03T04:31:21.901Z,19.70
2022-08-03T04:33:48.714Z,19.70
2022-08-03T04:36:17.252Z,19.70
2022-08-03T04:39:09.989Z,19.70
2022-08-03T04:42:07.401Z,19.70
2022-08-03T04:44:28.491Z,19.70
2022-08-03T04:46:56.384Z,19.70
2022-08-03T04:49:23.879Z,19.70
2022-08-03T04:51:50.868Z,19.70
2022-08-03T04:54:17.628Z,19.70
2022-08-03T04:56:44.521Z,19.70
2022-08-03T04:59:11.328Z,19.70
2022-08-03T05:01:39.289Z,19.70
2022-08-03T05:04:06.023Z,19.70
2022-08-03T05:06:32.639Z,19.80
2022-08-03T05:08:59.921Z,19.80
2022-08-03T05:11:26.578Z,19.90
2022-08-03T05:13:53.297Z,19.90
2022-08-03T05:16:20.024Z,19.80
2022-08-03T05:18:46.689Z,19.90
2022-08-03T05:21:14.465Z,19.90
2022-08-03T05:23:41.364Z,19.80
2022-08-03T05:26:08.023Z,19.80
2022-08-03T05:28:34.698Z,19.90
2022-08-03T05:31:01.358Z,19.90
2022-08-03T05:33:27.991Z,19.80
2022-08-03T05:36:01.701Z,19.90
2022-08-03T05:38:34.170Z,19.80
2022-08-03T05:41:21.089Z,19.90
2022-08-03T05:43:49.571Z,19.90
2022-08-03T05:46:16.261Z,19.80
2022-08-03T05:48:43.277Z,19.90
2022-08-03T05:51:11.281Z,19.90
2022-08-03T05:53:38.588Z,20.00
2022-08-03T05:56:13.601Z,20.10
2022-08-03T05:58:46.037Z,20.10
2022-08-03T06:01:12.988Z,20.10
2022-08-03T06:03:39.714Z,20.20
2022-08-03T06:06:06.399Z,20.20
2022-08-03T06:08:33.014Z,20.30
2022-08-03T06:10:59.751Z,20.40
2022-08-03T06:13:26.414Z,20.40
2022-08-03T06:15:53.068Z,20.40
2022-08-03T06:18:20.111Z,20.40
2022-08-03T06:20:47.063Z,20.50
2022-08-03T06:23:18.011Z,20.50
2022-08-03T06:25:45.572Z,20.60
2022-08-03T06:28:35.217Z,20.70
2022-08-03T06:31:00.855Z,20.70
2022-08-03T06:33:48.417Z,20.80
2022-08-03T06:36:14.531Z,20.80
2022-08-03T06:38:41.206Z,20.80
2022-08-03T06:41:07.922Z,20.90
2022-08-03T06:43:38.024Z,20.90
2022-08-03T06:46:24.171Z,21.00
2022-08-03T06:48:51.042Z,21.10
2022-08-03T06:51:17.681Z,21.10
2022-08-03T06:53:44.345Z,21.10
2022-08-03T06:56:11.083Z,21.10
2022-08-03T06:58:37.717Z,21.20
2022-08-03T07:01:04.398Z,21.20
2022-08-03T07:03:31.122Z,21.20
2022-08-03T07:05:57.826Z,21.30
2022-08-03T07:08:33.745Z,21.40
2022-08-03T07:11:01.390Z,21.40
2022-08-03T07:13:28.014Z,21.40
2022-08-03T07:15:56.159Z,21.40
2022-08-03T07:18:29.978Z,21.40
2022-08-03T07:20:57.414Z,21.50
2022-08-03T07:23:24.132Z,21.50
2022-08-03T07:25:50.981Z,21.60
2022-08-03T07:28:18.071Z,21.60
2022-08-03T07:30:45.156Z,21.70
2022-08-03T07:33:12.185Z,21.80
2022-08-03T07:35:39.204Z,21.80
2022-08-03T07:38:06.393Z,21.80
2022-08-03T07:40:33.705Z,21.80
2022-08-03T07:43:02.239Z,21.90
2022-08-03T07:45:30.271Z,21.90
2022-08-03T07:47:57.333Z,22.00
2022-08-03T07:50:24.434Z,22.00
2022-08-03T07:52:53.176Z,22.00
2022-08-03T07:55:21.245Z,22.10
2022-08-03T07:57:59.018Z,22.20
2022-08-03T08:00:26.438Z,22.30
2022-08-03T08:02:53.675Z,22.40
2022-08-03T08:05:20.655Z,22.40
2022-08-03T08:07:51.401Z,22.40
2022-08-03T08:10:19.085Z,22.50
2022-08-03T08:12:46.288Z,22.50
2022-08-03T08:15:13.242Z,22.50
2022-08-03T08:17:44.107Z,22.60
2022-08-03T08:20:11.990Z,22.60
2022-08-03T08:22:38.971Z,22.70
2022-08-03T08:25:07.461Z,22.80
2022-08-03T08:28:22.235Z,22.80
2022-08-03T08:30:22.658Z,22.80
2022-08-03T08:32:50.145Z,22.90
2022-08-03T08:35:17.587Z,23.10
2022-08-03T08:37:50.971Z,23.10
2022-08-03T08:40:20.989Z,23.20
2022-08-03T08:42:57.872Z,23.30
2022-08-03T08:45:25.586Z,23.30
2022-08-03T08:47:59.507Z,23.50
2022-08-03T08:50:28.440Z,23.50
2022-08-03T08:52:55.990Z,23.60
2022-08-03T08:55:23.760Z,23.70
2022-08-03T08:57:59.368Z,23.70
2022-08-03T09:00:26.368Z,23.70
2022-08-03T09:02:53.359Z,23.80
2022-08-03T09:05:27.821Z,23.90
2022-08-03T09:08:07.678Z,23.90
2022-08-03T09:10:35.230Z,24.00
2022-08-03T09:13:01.962Z,24.10
2022-08-03T09:15:31.465Z,24.10
2022-08-03T09:17:59.287Z,24.10
2022-08-03T09:20:26.996Z,24.10
2022-08-03T09:22:55.743Z,24.10
2022-08-03T09:25:36.547Z,24.20
2022-08-03T09:28:59.704Z,24.20
2022-08-03T09:31:10.529Z,24.20
2022-08-03T09:33:47.033Z,24.20
2022-08-03T09:36:34.511Z,24.30
2022-08-03T09:39:06.531Z,24.40
2022-08-03T09:41:33.588Z,24.50
2022-08-03T09:44:00.387Z,24.60
2022-08-03T09:46:31.707Z,24.60
2022-08-03T09:49:12.026Z,24.70
2022-08-03T09:52:31.675Z,24.70
2022-08-03T09:54:29.855Z,24.80
2022-08-03T09:56:57.197Z,24.80
2022-08-03T09:59:33.564Z,24.90
2022-08-03T10:02:01.036Z,24.90
2022-08-03T10:04:28.149Z,25.00
2022-08-03T10:07:06.054Z,25.10
2022-08-03T10:09:33.337Z,25.10
2022-08-03T10:12:10.268Z,25.20
2022-08-03T10:14:41.943Z,25.30
2022-08-03T10:17:11.856Z,25.40
2022-08-03T10:19:38.688Z,25.40
2022-08-03T10:22:24.675Z,25.40
2022-08-03T10:25:04.011Z,25.50
2022-08-03T10:27:32.699Z,25.60
2022-08-03T10:30:01.427Z,25.60
2022-08-03T10:32:29.243Z,25.70
2022-08-03T10:35:18.923Z,25.70
2022-08-03T10:37:57.047Z,25.80
2022-08-03T10:40:46.810Z,25.90
2022-08-03T10:43:23.050Z,26.00
2022-08-03T10:45:50.484Z,26.00
2022-08-03T10:48:17.983Z,26.00
2022-08-03T10:50:45.405Z,26.10
2022-08-03T10:53:12.795Z,26.10
2022-08-03T10:56:03.436Z,26.20
2022-08-03T10:58:57.060Z,26.30
2022-08-03T11:01:58.841Z,26.40
2022-08-03T11:04:26.895Z,26.40
2022-08-03T11:07:22.174Z,26.40
2022-08-03T11:09:53.345Z,26.50
2022-08-03T11:12:30.071Z,26.50
2022-08-03T11:15:08.921Z,26.60
2022-08-03T11:17:46.298Z,26.50
2022-08-03T11:20:44.275Z,26.60
2022-08-03T11:23:11.358Z,26.60
2022-08-03T11:25:57.045Z,26.70
2022-08-03T11:28:30.643Z,26.80
2022-08-03T11:31:39.175Z,26.80
2022-08-03T11:34:07.195Z,26.90
2022-08-03T11:36:52.780Z,27.00
2022-08-03T11:39:19.620Z,27.10
2022-08-03T11:41:46.485Z,27.20
2022-08-03T11:44:33.324Z,27.20
2022-08-03T11:47:00.690Z,27.20
2022-08-03T11:49:27.823Z,27.30
2022-08-03T11:51:54.859Z,27.40
2022-08-03T11:54:22.842Z,27.50
2022-08-03T11:56:50.955Z,27.50
2022-08-03T11:59:21.751Z,27.60
2022-08-03T12:01:49.961Z,27.70
2022-08-03T12:04:16.832Z,27.70
2022-08-03T12:06:58.419Z,27.90
2022-08-03T12:09:25.250Z,27.90
2022-08-03T12:12:00.289Z,28.00
2022-08-03T12:14:50.918Z,28.10
2022-08-03T12:17:14.988Z,28.10
2022-08-03T12:19:42.267Z,28.20
2022-08-03T12:22:08.926Z,28.40
2022-08-03T12:24:42.570Z,28.40
2022-08-03T12:27:09.408Z,28.50
2022-08-03T12:29:36.334Z,28.50
2022-08-03T12:32:03.063Z,28.60
2022-08-03T12:34:49.214Z,28.60
2022-08-03T12:37:22.518Z,28.70
2022-08-03T12:40:03.066Z,28.70
2022-08-03T12:42:35.256Z,28.90
2022-08-03T12:45:20.642Z,29.00
2022-08-03T12:47:51.297Z,29.00
2022-08-03T12:50:31.869Z,29.10
2022-08-03T12:52:59.825Z,29.20
2022-08-03T12:55:57.433Z,29.20
2022-08-03T12:58:33.970Z,29.30
2022-08-03T13:01:01.681Z,29.50
2022-08-03T13:03:42.706Z,29.50
2022-08-03T13:06:14.120Z,29.60
2022-08-03T13:08:40.831Z,29.50
2022-08-03T13:11:47.579Z,29.60
2022-08-03T13:14:16.728Z,29.60
2022-08-03T13:16:47.312Z,29.60
2022-08-03T13:19:15.635Z,29.70
2022-08-03T13:21:53.383Z,29.80
2022-08-03T13:24:30.494Z,29.90
2022-08-03T13:26:58.374Z,29.90
2022-08-03T13:29:25.036Z,29.90
2022-08-03T13:31:51.713Z,29.80
2022-08-03T13:34:22.937Z,29.80
2022-08-03T13:37:08.368Z,29.90
2022-08-03T13:39:58.407Z,29.90
2022-08-03T13:42:23.085Z,30.00
2022-08-03T13:44:49.812Z,30.20
2022-08-03T13:47:16.455Z,30.30
2022-08-03T13:50:00.136Z,30.30
2022-08-03T13:52:32.663Z,30.40
2022-08-03T13:55:00.147Z,30.50
2022-08-03T13:58:02.242Z,30.60
2022-08-03T14:00:16.693Z,30.70
2022-08-03T14:03:01.881Z,30.70
2022-08-03T14:05:32.303Z,30.80
2022-08-03T14:08:04.835Z,30.90
2022-08-03T14:10:39.482Z,30.90
2022-08-03T14:13:06.620Z,31.00
2022-08-03T14:15:38.234Z,31.10
2022-08-03T14:18:06.548Z,31.20
2022-08-03T14:20:38.496Z,31.30
2022-08-03T14:23:14.724Z,31.40
2022-08-03T14:25:49.876Z,31.50
2022-08-03T14:28:18.631Z,31.40
2022-08-03T14:30:45.537Z,31.30
2022-08-03T14:33:12.209Z,31.20
2022-08-03T14:35:38.800Z,31.20
2022-08-03T14:38:05.608Z,31.30
2022-08-03T14:40:32.319Z,31.30
2022-08-03T14:42:59.019Z,31.50
2022-08-03T14:45:25.889Z,31.70
2022-08-03T14:50:27.963Z,31.70
2022-08-03T14:50:44.227Z,31.80
2022-08-03T14:53:13.674Z,31.80
2022-08-03T14:55:50.408Z,32.00
2022-08-03T14:58:21.174Z,32.10
2022-08-03T15:00:51.388Z,32.10
2022-08-03T15:03:21.558Z,32.10
2022-08-03T15:05:48.347Z,32.20
2022-08-03T15:08:15.158Z,32.40
2022-08-03T15:10:44.308Z,32.60
2022-08-03T15:13:14.962Z,32.80
2022-08-03T15:15:41.634Z,32.90
2022-08-03T15:18:08.298Z,33.10
2022-08-03T15:20:50.419Z,33.20
2022-08-03T15:23:17.843Z,33.40
2022-08-03T15:26:31.582Z,33.40
2022-08-03T15:28:31.898Z,33.40
2022-08-03T15:30:58.596Z,33.60
2022-08-03T15:33:25.207Z,34.00
2022-08-03T15:35:52.917Z,34.40
2022-08-03T15:38:19.592Z,34.60
2022-08-03T15:40:46.282Z,35.10
2022-08-03T15:43:12.983Z,35.80
2022-08-03T15:45:40.527Z,36.50
2022-08-03T15:48:08.698Z,36.90
2022-08-03T15:50:35.556Z,37.40
2022-08-03T15:53:02.178Z,38.00
2022-08-03T15:55:31.470Z,38.10
2022-08-03T15:59:04.117Z,38.20
2022-08-03T16:00:47.095Z,38.30
2022-08-03T16:03:13.831Z,38.30
2022-08-03T16:05:40.479Z,38.30
2022-08-03T16:08:11.807Z,38.10
2022-08-03T16:10:40.731Z,38.30
2022-08-03T16:13:07.705Z,37.90
2022-08-03T16:15:34.474Z,38.20
2022-08-03T16:18:08.924Z,38.70
2022-08-03T16:20:35.781Z,39.20
2022-08-03T16:23:10.302Z,39.90
2022-08-03T16:25:42.413Z,40.70
2022-08-03T16:28:13.866Z,41.40
2022-08-03T16:30:42.184Z,41.70
2022-08-03T16:33:09.183Z,41.90
2022-08-03T16:35:36.147Z,42.00
2022-08-03T16:38:07.792Z,41.90
2022-08-03T16:40:36.510Z,41.40
2022-08-03T16:43:10.312Z,41.30
2022-08-03T16:45:45.738Z,40.90
2022-08-03T16:48:12.487Z,40.30
2022-08-03T16:50:39.176Z,39.60
2022-08-03T16:53:09.798Z,38.60
2022-08-03T16:55:48.523Z,38.10
2022-08-03T16:58:34.883Z,37.60
2022-08-03T17:01:22.039Z,37.10
2022-08-03T17:04:01.765Z,36.40
2022-08-03T17:06:34.269Z,35.90
2022-08-03T17:09:02.052Z,35.70
2022-08-03T17:11:33.025Z,35.30
2022-08-03T17:14:00.148Z,35.10
2022-08-03T17:16:26.869Z,34.90
2022-08-03T17:18:54.926Z,34.70
2022-08-03T17:21:23.745Z,34.60
2022-08-03T17:23:59.948Z,34.40
2022-08-03T17:26:30.247Z,34.20
2022-08-03T17:29:02.053Z,34.00
2022-08-03T17:31:48.570Z,33.90
2022-08-03T17:34:16.275Z,33.70
2022-08-03T17:39:48.811Z,33.50
2022-08-03T17:42:30.343Z,33.40
2022-08-03T17:44:58.823Z,33.30
2022-08-03T17:47:42.443Z,33.20
2022-08-03T17:50:24.518Z,33.10
2022-08-03T17:53:07.854Z,33.00
2022-08-03T17:55:57.227Z,32.90
2022-08-03T17:58:34.262Z,32.80
2022-08-03T18:01:57.110Z,32.70
2022-08-03T18:04:11.784Z,32.60
2022-08-03T18:06:55.850Z,32.60
2022-08-03T18:10:03.509Z,32.50
2022-08-03T18:12:14.088Z,32.40
2022-08-03T18:14:59.205Z,32.30
2022-08-03T18:17:55.179Z,32.20
2022-08-03T18:20:32.808Z,32.10
2022-08-03T18:23:06.010Z,32.00
2022-08-03T18:28:25.624Z,31.80
2022-08-03T18:30:56.403Z,31.70
2022-08-03T18:34:17.896Z,31.70
2022-08-03T18:36:17.946Z,31.60
2022-08-03T18:38:47.440Z,31.50
2022-08-03T18:41:32.583Z,31.40
2022-08-03T18:44:08.162Z,31.30
2022-08-03T18:46:48.241Z,31.20
2022-08-03T18:49:29.235Z,31.10
2022-08-03T18:52:02.241Z,31.00
2022-08-03T18:54:51.070Z,30.90
2022-08-03T18:57:22.481Z,30.80
2022-08-03T19:00:04.238Z,30.70
2022-08-03T19:05:57.749Z,30.50
2022-08-03T19:08:49.292Z,30.40
2022-08-03T19:12:11.040Z,30.30
2022-08-03T19:14:28.828Z,30.20
2022-08-03T19:17:00.654Z,30.10
2022-08-03T19:19:43.450Z,30.00
2022-08-03T19:22:16.074Z,30.00
2022-08-03T19:24:45.152Z,29.80
2022-08-03T19:27:12.235Z,29.80
2022-08-03T19:29:59.480Z,29.70
2022-08-03T19:32:28.890Z,29.60
2022-08-03T19:34:56.826Z,29.50
2022-08-03T19:37:33.153Z,29.40
2022-08-03T19:40:10.311Z,29.40
2022-08-03T19:42:39.557Z,29.30
2022-08-03T19:45:13.892Z,29.20
2022-08-03T19:47:58.375Z,29.10
2022-08-03T19:50:25.059Z,29.10
2022-08-03T19:52:52.685Z,29.00
2022-08-03T19:55:19.697Z,28.90
2022-08-03T19:57:47.088Z,28.90
2022-08-03T20:00:19.294Z,28.80
2022-08-03T20:02:46.370Z,28.80
2022-08-03T20:05:19.917Z,28.70
2022-08-03T20:07:48.336Z,28.60
2022-08-03T20:10:16.175Z,28.60
2022-08-03T20:12:43.866Z,28.50
2022-08-03T20:15:10.991Z,28.50
2022-08-03T20:17:56.309Z,28.40
2022-08-03T20:20:27.813Z,28.40
2022-08-03T20:22:57.805Z,28.20
2022-08-03T20:25:27.271Z,28.20
2022-08-03T20:28:14.185Z,28.20
2022-08-03T20:30:42.648Z,28.10
2022-08-03T20:33:10.221Z,28.00
2022-08-03T20:35:36.930Z,28.00
2022-08-03T20:38:03.583Z,27.90
2022-08-03T20:40:30.241Z,27.90
2022-08-03T20:42:56.887Z,27.80
2022-08-03T20:46:00.390Z,27.80
2022-08-03T20:48:10.531Z,27.70
2022-08-03T20:50:40.377Z,27.60
2022-08-03T20:53:12.155Z,27.60
2022-08-03T20:55:47.584Z,27.60
2022-08-03T20:58:29.063Z,27.50
2022-08-03T21:00:57.426Z,27.40
2022-08-03T21:03:40.651Z,27.40
2022-08-03T21:06:09.881Z,27.30
2022-08-03T21:08:38.676Z,27.30
2022-08-03T21:11:16.459Z,27.20
2022-08-03T21:12:58.031Z,31.90
2022-08-03T21:13:10.281Z,30.60
2022-08-03T21:13:51.698Z,27.20
2022-08-03T21:16:21.468Z,27.10
2022-08-03T21:18:50.091Z,27.10
2022-08-03T21:21:18.330Z,27.00
2022-08-03T21:23:49.707Z,27.00
2022-08-03T21:26:23.949Z,27.00
2022-08-03T21:28:51.595Z,26.90
2022-08-03T21:31:24.322Z,26.90
2022-08-03T21:34:03.358Z,26.90
2022-08-03T21:36:31.156Z,26.80
2022-08-03T21:38:58.101Z,26.70
2022-08-03T21:41:25.892Z,26.70
2022-08-03T21:43:52.530Z,26.60
2022-08-03T21:46:19.812Z,26.60
2022-08-03T21:48:48.226Z,26.60
2022-08-03T21:51:16.399Z,26.60
2022-08-03T21:54:02.878Z,26.50
2022-08-03T21:56:34.752Z,26.50
2022-08-03T21:59:05.968Z,26.40
2022-08-03T22:01:35.394Z,26.40
2022-08-03T22:04:04.561Z,26.40
2022-08-03T22:06:33.882Z,26.30
2022-08-03T22:09:00.657Z,26.30
2022-08-03T22:11:27.578Z,26.30
2022-08-03T22:13:54.439Z,26.20
2022-08-03T22:16:21.377Z,26.20
2022-08-03T22:18:48.016Z,26.20
2022-08-03T22:21:15.723Z,26.10
2022-08-03T22:23:43.734Z,26.00
2022-08-03T22:26:13.152Z,26.00
2022-08-03T22:28:39.916Z,26.00
2022-08-03T22:31:30.566Z,25.90
2022-08-03T22:33:54.401Z,25.90
2022-08-03T22:36:22.934Z,25.80
2022-08-03T22:38:51.042Z,25.80
2022-08-03T22:41:18.377Z,25.80
2022-08-03T22:43:45.110Z,25.80
2022-08-03T22:46:18.261Z,25.70
2022-08-03T22:48:46.403Z,25.70
2022-08-03T22:51:15.150Z,25.70
2022-08-03T22:53:41.967Z,25.60
2022-08-03T22:56:08.851Z,25.60
2022-08-03T22:58:35.603Z,25.60
2022-08-03T23:01:03.826Z,25.60
2022-08-03T23:04:01.150Z,25.50
2022-08-03T23:06:21.487Z,25.50
2022-08-03T23:08:49.550Z,25.50
2022-08-03T23:11:17.459Z,25.40
2022-08-03T23:13:45.567Z,25.40
2022-08-03T23:16:13.131Z,25.40
2022-08-03T23:18:42.336Z,25.40
2022-08-03T23:21:11.615Z,25.30
2022-08-03T23:23:44.584Z,25.30
2022-08-03T23:26:12.564Z,25.30
2022-08-03T23:28:39.796Z,25.20
2022-08-03T23:31:07.615Z,25.20
2022-08-03T23:33:36.688Z,25.20
2022-08-03T23:36:28.934Z,25.10
2022-08-03T23:38:53.401Z,25.00
2022-08-03T23:41:20.291Z,25.00
2022-08-03T23:43:53.922Z,25.00
2022-08-03T23:46:25.724Z,25.00
2022-08-03T23:48:53.899Z,24.90
2022-08-03T23:51:41.959Z,24.90
2022-08-03T23:54:31.220Z,24.90
2022-08-03T23:57:00.720Z,24.80
2022-08-03T23:59:27.307Z,24.70
